Tiempo atmosférico en la estación meteorológica de Aroche, Huelva (260 m.)



Fecha
DESCASC
Temp. máxima en grados centígrados (hora)
DESCASC
Temp. mínima en grados centígrados (hora)
DESCASC
Temp. media en grados centígrados
DESCASC
Racha de viento máxima en m/sg (hora)
DESCASC
Velocidad máxima media en intervalos de 10 minutos(hora)
DESCASC
Precipitaciones diarias en mm
DESCASC
Precipitaciones de 00:00 a 06:00 en mm
DESCASC
Precipitaciones de 06:00 a 12:00 en mm
DESCASC
Precipitaciones de 12:00 a 18:00 en mm
DESCASC
Precipitaciones de 18:00 a 24:00 en mm
DESCASC
03-12-2020 16.1 (13:40) 2.7 (06:40) 9.4 6.94 (21:20) 3.89 (14:10) 0 0 0 0 0
02-12-2020 17.8 (15:50) 1.7 (08:50) 9.7 5.28 (16:50) 3.33 (16:50) 0 0 0 0 0
01-12-2020 20.4 (14:50) 5.5 (23:59) 12.9 5.28 (17:10) 3.33 (17:10) 0 0 0 0 0
30-11-2020 18.9 (15:40) 8.5 (00:00) 13.7 5.28 (12:00) 2.78 (12:00) 0.4 0.2 0.2 0 0
29-11-2020 16.6 (13:50) 5 (00:00) 10.8 11.11 (15:30) 6.11 (15:30) 2.6 0 0.2 0 2.4
28-11-2020 16.5 (15:10) 6 (00:00) 11.3 6.39 (16:20) 3.61 (16:20) 1 0 0 0 1
27-11-2020 12.5 (13:40) 5 (00:00) 8.8 3.61 (16:30) 2.5 (15:10) 0 0 0 0 0
26-11-2020 11.4 (12:30) 8.9 (00:00) 10.1 9.17 (21:00) 4.72 (21:30) 17.4 5.4 9.4 2.6 0
25-11-2020 14.4 (13:10) 3.9 (00:00) 9.1 8.61 (08:40) 4.44 (16:30) 30 0 16 0.6 13.4
24-11-2020 17.5 (14:50) 3 (00:00) 10.3 4.44 (13:50) 2.5 (13:50) 0 0 0 0 0
23-11-2020 19.9 (15:40) 2.3 (00:00) 11.1 3.33 (13:00) 1.67 (11:30) 0 0 0 0 0
22-11-2020 20.4 (15:00) 4.4 (00:00) 12.4 5.83 (12:30) 3.33 (13:10) 0 0 0 0 0
21-11-2020 22 (14:20) 3.5 (00:00) 12.8 4.44 (11:40) 2.22 (11:40) 0 0 0 0 0
20-11-2020 23.9 (14:40) 7.4 (00:00) 15.6 7.22 (17:50) 3.89 (16:20) 0 0 0 0 0
19-11-2020 26.2 (14:50) 8 (00:00) 17.1 10.28 (15:40) 6.11 (15:40) 0 0 0 0 0
18-11-2020 26.3 (15:00) 8.1 (00:00) 17.2 3.89 (13:40) 2.22 (13:40) 0 0 0 0 0
17-11-2020 24.2 (15:00) 8.7 (00:00) 16.5 5.83 (16:40) 3.61 (15:10) 0.2 0 0.2 0 0
16-11-2020 23 (16:00) 10.7 (00:00) 16.8 4.44 (17:20) 2.78 (17:00) 0 0 0 0 0
15-11-2020 24.3 (15:20) 12.9 (00:00) 18.6 7.78 (15:20) 3.89 (14:00) 0 0 0 0 0
14-11-2020 20.2 (14:00) 15 (00:00) 17.6 6.67 (12:00) 3.61 (12:00) 3 0.4 2.2 0.4 0
13-11-2020 18.9 (15:20) 7.2 (00:00) 13 6.39 (14:40) 3.89 (14:40) 0 0 0 0 0
12-11-2020 21.7 (15:50) 7.5 (00:00) 14.6 5.83 (14:30) 3.33 (14:10) 0 0 0 0 0
11-11-2020 20.8 (14:30) 5.8 (00:00) 13.3 4.44 (11:30) 3.06 (15:40) 0 0 0 0 0
10-11-2020 21 (15:00) 6 (00:00) 13.5 5.56 (16:20) 3.33 (11:50) 0 0 0 0 0
09-11-2020 19.7 (15:50) 9.7 (00:00) 14.7 5.83 (01:00) 2.78 (16:50) 5 5 0 0 0
08-11-2020 20.1 (14:20) 10.4 (00:00) 15.3 8.89 (16:00) 6.11 (16:00) 2 0 0 0 2
07-11-2020 19.8 (16:30) 11.3 (00:00) 15.5 8.61 (13:20) 5 (13:50) 4 3.8 0.2 0 0
06-11-2020 20.1 (11:50) 12.7 (00:00) 16.4 16.39 (15:40) 6.67 (15:50) 10.4 0.4 0 5.8 4.2
05-11-2020 19.6 (16:00) 11 (00:00) 15.3 10 (12:00) 6.39 (15:10) 14.2 9.2 3.8 0 1.2

Gráficas

Temp. máximas Temp. mínimas Temp. medias Precipitaciones Rachas de viento máximas Velocidades máximas media en intervalos de 10 minutos

Datos horarios

Fecha y hora oficial Temperatura (ºC) Velocidad del viento (km/h) Dirección del viento Racha (km/h) Dirección de racha Precipitación (mm) Presión (hPa) Tendencia (hPa) Humedad (%)
2020-12-04 23:00:00 4.8 11 Oeste 21 Oeste 0 -- -- 95
2020-12-04 22:00:00 5.2 10 Oeste 18 Oeste 0 -- -- 93
2020-12-04 21:00:00 4.7 8 Oeste 19 Oeste 0 -- -- 94
2020-12-04 20:00:00 4.5 7 Oeste 18 Oeste 0 -- -- 93
2020-12-04 19:00:00 5.3 6 Oeste 26 Oeste 0 -- -- 88
2020-12-04 18:00:00 5.9 12 Oeste 35 Noroeste 0.2 -- -- 83
2020-12-04 17:00:00 6.7 13 Noroeste 33 Oeste 0.4 -- -- 87
2020-12-04 16:00:00 6.1 15 Noroeste 49 Noroeste 3 -- -- 92
2020-12-04 15:00:00 8.1 14 Oeste 37 Oeste 0.8 -- -- 90
2020-12-04 14:00:00 7.8 25 Noroeste 48 Noroeste 1 -- -- 87
2020-12-04 13:00:00 9.3 10 Oeste 30 Oeste 1.2 -- -- 92
2020-12-04 12:00:00 9.4 14 Noroeste 47 Oeste 1 -- -- 90
2020-12-04 11:00:00 10.4 17 Oeste 32 Oeste 0 -- -- 90
2020-12-04 10:00:00 9.7 10 Oeste 46 Oeste 0.2 -- -- 95
2020-12-04 09:00:00 9.5 24 Oeste 42 Oeste 0.4 -- -- 96
2020-12-04 08:00:00 9.8 19 Oeste 37 Oeste 1.8 -- -- 96
2020-12-04 07:00:00 10.3 16 Oeste 27 Oeste 0 -- -- 98
2020-12-04 06:00:00 8.6 0 Calma 5 Norte 0 -- -- 100
2020-12-04 05:00:00 7.4 0 Calma 8 Sudeste 0 -- -- 99
2020-12-04 04:00:00 7.3 0 Calma 6 Sudeste 0.2 -- -- 99
2020-12-04 03:00:00 7.4 0 Calma 3 Nordeste 0 -- -- 99
2020-12-04 02:00:00 7 2 Sudoeste 4 Sudoeste 0 -- -- 99
2020-12-04 01:00:00 6 0 Calma 3 Nordeste 0 -- -- 98
2020-12-04 00:00:00 5.3 0 Calma 5 Sudeste 0 -- -- 97
2020-12-03 23:00:00 5.8 4 Este 8 Este 0 -- -- 93
2020-12-03 22:00:00 8.1 2 Norte 25 Noroeste 0 -- -- 84
2020-12-03 21:00:00 6.4 3 Oeste 13 Oeste 0 -- -- 96
2020-12-03 20:00:00 6.4 0 Calma 4 Norte 0 -- -- 90
2020-12-03 19:00:00 9.6 4 Norte 5 Nordeste 0 -- -- 84
2020-12-03 18:00:00 13.2 3 Oeste 16 Oeste 0 -- -- 68
2020-12-03 17:00:00 14.7 9 Oeste 18 Noroeste 0 -- -- 64
2020-12-03 16:00:00 15 12 Oeste 22 Oeste 0 -- -- 66
2020-12-03 15:00:00 15.4 12 Oeste 23 Oeste 0 -- -- 65
2020-12-03 14:00:00 15.6 12 Oeste 21 Oeste 0 -- -- 69
2020-12-03 13:00:00 15.3 6 Oeste 10 Oeste 0 -- -- 66
2020-12-03 12:00:00 13 3 Norte 6 Norte 0 -- -- 80
2020-12-03 11:00:00 8.9 0 Calma 3 Norte 0 -- -- 100
2020-12-03 10:00:00 7.1 0 Calma 3 Sur 0 -- -- 100
2020-12-03 09:00:00 5.8 0 Calma 6 Sudeste 0 -- -- 100
2020-12-03 08:00:00 4.8 2 Nordeste 8 Sudeste 0 -- -- 100
2020-12-03 07:00:00 3.5 3 Este 4 Este 0 -- -- 100
2020-12-03 06:00:00 3.1 0 Calma 4 Sudeste 0 -- -- 99
2020-12-03 05:00:00 3.5 5 Sudeste 6 Sudeste 0 -- -- 99
2020-12-03 04:00:00 4.1 3 Sudeste 7 Sudeste 0 -- -- 98
2020-12-03 03:00:00 4.2 2 Este 9 Sudeste 0 -- -- 98
2020-12-03 02:00:00 4.6 3 Este 8 Sudeste 0 -- -- 97
2020-12-03 01:00:00 4.7 2 Sudeste 6 Sudeste 0 -- -- 97
2020-12-03 00:00:00 5.5 0 Calma 9 Sur 0 -- -- 96
2020-12-02 23:00:00 6.2 5 Norte 12 Sur 0 -- -- 96
2020-12-02 22:00:00 6.8 3 Nordeste 6 Sudeste 0 -- -- 95
2020-12-02 21:00:00 7.9 3 Sudeste 6 Este 0 -- -- 92
2020-12-02 20:00:00 9.5 3 Sudeste 12 Nordeste 0 -- -- 86
2020-12-02 19:00:00 11.3 4 Norte 8 Nordeste 0 -- -- 82
2020-12-02 18:00:00 14.9 3 Noroeste 15 Norte 0 -- -- 66
2020-12-02 17:00:00 16.1 9 Norte 19 Norte 0 -- -- 61
2020-12-02 16:00:00 17.6 6 Noroeste 14 Norte 0 -- -- 50
2020-12-02 15:00:00 17.5 9 Norte 19 Norte 0 -- -- 47
2020-12-02 14:00:00 17.4 8 Nordeste 15 Nordeste 0 -- -- 49
2020-12-02 13:00:00 16.1 6 Oeste 12 Noroeste 0 -- -- 68
2020-12-02 12:00:00 13.2 5 Noroeste 9 Noroeste 0 -- -- 85
2020-12-02 11:00:00 10 0 Calma 2 Oeste 0 -- -- 100
2020-12-02 10:00:00 5.9 0 Calma 4 Sudeste 0 -- -- 100
2020-12-02 09:00:00 2 2 Sudeste 6 Nordeste 0 -- -- 100
2020-12-02 08:00:00 2 0 Calma 5 Noroeste 0 -- -- 100
2020-12-02 07:00:00 3.1 2 Este 5 Sudeste 0 -- -- 100
2020-12-02 06:00:00 2.9 3 Este 5 Este 0 -- -- 99
2020-12-02 05:00:00 2.8 0 Calma 6 Sur 0 -- -- 99
2020-12-02 04:00:00 3.5 0 Calma 7 Sudeste 0 -- -- 99
2020-12-02 03:00:00 3.9 2 Este 4 Sudeste 0 -- -- 99
2020-12-02 02:00:00 4.3 2 Este 5 Sur 0 -- -- 98
2020-12-02 01:00:00 5.4 5 Este 6 Este 0 -- -- 98
2020-12-02 00:00:00 5.5 0 Calma 4 Sur 0 -- -- 97
2020-12-01 23:00:00 6.8 0 Calma 6 Sudeste 0 -- -- 97
2020-12-01 22:00:00 7.7 6 Este 8 Este 0 -- -- 96
2020-12-01 21:00:00 8.9 0 Calma 5 Nordeste 0 -- -- 95
2020-12-01 20:00:00 10.7 3 Este 5 Este 0 -- -- 89
2020-12-01 19:00:00 13.7 3 Nordeste 12 Noroeste 0 -- -- 81
2020-12-01 18:00:00 16.5 7 Noroeste 19 Norte 0 -- -- 69
2020-12-01 17:00:00 18.5 10 Norte 18 Norte 0 -- -- 58
2020-12-01 16:00:00 19.6 10 Noroeste 17 Noroeste 0 -- -- 52
2020-12-01 15:00:00 20.4 5 Oeste 12 Sudoeste 0 -- -- 48
2020-12-01 14:00:00 19.8 3 Norte 13 Nordeste 0 -- -- 53
2020-12-01 13:00:00 19 9 Norte 14 Norte 0 -- -- 57
2020-12-01 12:00:00 17.6 4 Sudoeste 8 Sudoeste 0 -- -- 66
2020-12-01 11:00:00 14.4 0 Calma 7 Este 0 -- -- 82
2020-12-01 10:00:00 10.7 3 Sudeste 6 Sudeste 0 -- -- 100
2020-12-01 09:00:00 8.1 3 Este 6 Sur 0 -- -- 100
2020-12-01 08:00:00 7.7 3 Norte 7 Sur 0 -- -- 99
2020-12-01 07:00:00 6.9 4 Sudeste 7 Sur 0 -- -- 98
2020-12-01 06:00:00 7.9 3 Este 6 Este 0 -- -- 98
2020-12-01 05:00:00 8.7 3 Sur 6 Sur 0 -- -- 98
2020-12-01 04:00:00 9 4 Este 6 Sudeste 0 -- -- 99
2020-12-01 03:00:00 8.7 5 Este 8 Este 0 -- -- 99
2020-12-01 02:00:00 8.4 0 Calma 7 Sur 0 -- -- 98
2020-12-01 01:00:00 8.1 4 Sudeste 6 Nordeste 0 -- -- 98
2020-12-01 00:00:00 8.6 5 Este 7 Este 0 -- -- 97
2020-11-30 23:00:00 8.6 5 Sudeste 9 Nordeste 0 -- -- 97
2020-11-30 22:00:00 8.8 4 Sudeste 5 Este 0 -- -- 95
2020-11-30 21:00:00 9.7 4 Este 5 Este 0 -- -- 95
2020-11-30 20:00:00 10.3 0 Calma 6 Nordeste 0 -- -- 93
2020-11-30 19:00:00 12.2 2 Nordeste 10 Norte 0 -- -- 89
2020-11-30 18:00:00 14.8 4 Nordeste 10 Sudoeste 0 -- -- 81
2020-11-30 17:00:00 17.2 3 Sudoeste 15 Sudoeste 0 -- -- 71
2020-11-30 16:00:00 18.9 4 Oeste 11 Oeste 0 -- -- 59
2020-11-30 15:00:00 18.4 4 Oeste 8 Oeste 0 -- -- 61
2020-11-30 14:00:00 16.6 4 Noroeste 8 Noroeste 0 -- -- 69
2020-11-30 13:00:00 16.6 3 Sur 18 Este 0 -- -- 70
2020-11-30 12:00:00 16.3 10 Sudeste 19 Sudeste 0 -- -- 63
2020-11-30 11:00:00 14.8 0 Calma 13 Sudeste 0 -- -- 80
2020-11-30 10:00:00 13.7 8 Sudeste 15 Sudeste 0.2 -- -- 73
2020-11-30 09:00:00 11.7 6 Este 14 Sudeste 0 -- -- 88
2020-11-30 08:00:00 11.4 6 Sudeste 12 Sudeste 0 -- -- 91
2020-11-30 07:00:00 12.1 8 Sudeste 14 Sudeste 0 -- -- 90
2020-11-30 06:00:00 11.7 10 Sudeste 14 Este 0 -- -- 96
2020-11-30 05:00:00 11.3 3 Nordeste 11 Sudeste 0 -- -- 99
2020-11-30 04:00:00 11.2 0 Calma 7 Sudeste 0 -- -- 99
2020-11-30 03:00:00 11 3 Nordeste 5 Sur 0.2 -- -- 99
2020-11-30 02:00:00 10.8 2 Sudeste 5 Sudeste 0 -- -- 98
2020-11-30 01:00:00 11.1 4 Este 6 Nordeste 0 -- -- 97
2020-11-30 00:00:00 11.7 2 Este 8 Este 0 -- -- 96
2020-11-29 23:00:00 11.9 2 Noroeste 21 Oeste 0.4 -- -- 94
2020-11-29 22:00:00 12.8 0 Calma 10 Este 2 -- -- 95
2020-11-29 21:00:00 13 0 Calma 6 Este 0 -- -- 90
2020-11-29 20:00:00 13.8 2 Sudeste 24 Sudeste 0 -- -- 87
2020-11-29 19:00:00 14.1 5 Sudeste 26 Sudeste 0 -- -- 88
2020-11-29 18:00:00 14.1 9 Sudeste 22 Sudeste 0 -- -- 89
2020-11-29 17:00:00 14.3 14 Sudeste 27 Sudeste 0 -- -- 88
2020-11-29 16:00:00 14.9 16 Sudeste 40 Sudeste 0 -- -- 84
2020-11-29 15:00:00 16.1 17 Sudeste 32 Sudeste 0 -- -- 77
2020-11-29 14:00:00 16 17 Sudeste 29 Sudeste 0 -- -- 75
2020-11-29 13:00:00 15.5 10 Sudeste 24 Sudeste 0 -- -- 76
2020-11-29 12:00:00 15 12 Sudeste 23 Sur 0 -- -- 80
2020-11-29 11:00:00 12.7 5 Este 9 Este 0 -- -- 100
2020-11-29 10:00:00 9.9 4 Este 8 Este 0 -- -- 100
2020-11-29 09:00:00 6.4 5 Nordeste 8 Nordeste 0 -- -- 100
2020-11-29 08:00:00 5.1 0 Calma 4 Sudoeste 0.2 -- -- 100
2020-11-29 07:00:00 5.3 0 Calma 3 Sur 0 -- -- 100
2020-11-29 06:00:00 5.9 0 Calma 6 Sur 0 -- -- 99
2020-11-29 05:00:00 7.2 3 Este 5 Este 0 -- -- 99
2020-11-29 04:00:00 8.8 0 Calma 6 Sudeste 0 -- -- 99
2020-11-29 03:00:00 9.2 3 Nordeste 6 Este 0 -- -- 99
2020-11-29 02:00:00 9.4 2 Norte 4 Norte 0 -- -- 97
2020-11-29 01:00:00 11.4 4 Sudeste 6 Sudeste 0 -- -- 98
2020-11-29 00:00:00 11.9 3 Este 6 Oeste 0.2 -- -- 98
2020-11-28 23:00:00 12.2 2 Oeste 9 Sur 0.2 -- -- 96
2020-11-28 22:00:00 12.5 5 Sur 17 Sudeste 0.4 -- -- 94
2020-11-28 21:00:00 12.8 9 Sudeste 19 Este 0 -- -- 89
2020-11-28 20:00:00 12.8 6 Sudeste 14 Este 0.2 -- -- 89
2020-11-28 19:00:00 13.4 4 Este 15 Sudeste 0 -- -- 82
2020-11-28 18:00:00 13.6 6 Sudeste 19 Sur 0 -- -- 80
2020-11-28 17:00:00 14.3 8 Sudeste 23 Sur 0 -- -- 75
2020-11-28 16:00:00 15.2 10 Sur 20 Sudoeste 0 -- -- 70
2020-11-28 15:00:00 16.3 5 Sur 13 Sudoeste 0 -- -- 69
2020-11-28 14:00:00 14.7 3 Sudoeste 10 Oeste 0 -- -- 77
2020-11-28 13:00:00 13.7 4 Norte 12 Oeste 0 -- -- 79
2020-11-28 12:00:00 11.5 2 Noroeste 8 Oeste 0 -- -- 100
2020-11-28 11:00:00 8.8 0 Calma 4 Sudeste 0 -- -- 100
2020-11-28 10:00:00 7.8 0 Calma 9 Este 0 -- -- 100
2020-11-28 09:00:00 8.3 0 Calma 6 Este 0 -- -- 100
2020-11-28 08:00:00 8.3 2 Sudeste 5 Sudeste 0 -- -- 100
2020-11-28 07:00:00 7.8 2 Nordeste 5 Sudeste 0 -- -- 100
2020-11-28 06:00:00 7.4 4 Sudeste 6 Este 0 -- -- 100
2020-11-28 05:00:00 6.6 0 Calma 6 Sudoeste 0 -- -- 100
2020-11-28 04:00:00 6 4 Oeste 6 Noroeste 0 -- -- 100
2020-11-28 03:00:00 6.4 0 Calma 5 Este 0 -- -- 99
2020-11-28 02:00:00 7.6 0 Calma 8 Este 0 -- -- 99
2020-11-28 01:00:00 8.9 2 Este 6 Este 0 -- -- 99
2020-11-28 00:00:00 8.8 2 Sur 4 Sur 0 -- -- 99
2020-11-27 23:00:00 8.8 2 Sudeste 4 Este 0 -- -- 98
2020-11-27 22:00:00 8.8 3 Sudoeste 5 Sudoeste 0 -- -- 98
2020-11-27 21:00:00 9.2 0 Calma 6 Sudoeste 0 -- -- 97
2020-11-27 20:00:00 10 2 Sudoeste 5 Sudoeste 0 -- -- 93
2020-11-27 19:00:00 10.9 2 Norte 8 Norte 0 -- -- 91
2020-11-27 18:00:00 11.3 3 Noroeste 8 Noroeste 0 -- -- 88
2020-11-27 17:00:00 11.5 2 Sudoeste 13 Norte 0 -- -- 87
2020-11-27 16:00:00 11.7 6 Noroeste 12 Norte 0 -- -- 84
2020-11-27 15:00:00 11.8 6 Noroeste 12 Norte 0 -- -- 84
2020-11-27 14:00:00 12.3 5 Noroeste 9 Oeste 0 -- -- 78
2020-11-27 13:00:00 11.5 2 Noroeste 5 Norte 0 -- -- 85
2020-11-27 12:00:00 10.1 0 Calma 3 Norte 0 -- -- 98
2020-11-27 11:00:00 8.3 0 Calma 5 Nordeste 0 -- -- 100
2020-11-27 10:00:00 7.2 0 Calma 4 Sudoeste 0 -- -- 100
2020-11-27 09:00:00 6.1 0 Calma 6 Sudeste 0 -- -- 100
2020-11-27 08:00:00 5.5 5 Sudeste 6 Sudeste 0 -- -- 100
2020-11-27 07:00:00 5.3 0 Calma 6 Nordeste 0 -- -- 99
2020-11-27 06:00:00 5.4 2 Este 5 Nordeste 0 -- -- 99
2020-11-27 05:00:00 5.4 0 Calma 3 Oeste 0 -- -- 98
2020-11-27 04:00:00 5.3 2 Oeste 7 Sudeste 0 -- -- 99
2020-11-27 03:00:00 5.5 4 Sudeste 6 Sudeste 0 -- -- 98
2020-11-27 02:00:00 5.5 2 Oeste 9 Sudeste 0 -- -- 97
2020-11-27 01:00:00 7.3 2 Norte 9 Este 0 -- -- 91
2020-11-27 00:00:00 9.3 5 Este 22 Este 0 -- -- 85
2020-11-26 23:00:00 9.4 8 Este 22 Sudeste 0 -- -- 84
2020-11-26 22:00:00 9.6 12 Sudeste 32 Sudeste 0 -- -- 84
2020-11-26 21:00:00 9.5 16 Sudeste 33 Sudeste 0 -- -- 86
2020-11-26 20:00:00 9.1 9 Este 20 Este 0 -- -- 89
2020-11-26 19:00:00 9.4 9 Sudeste 18 Sudeste 0 -- -- 93
2020-11-26 18:00:00 10.2 9 Sudeste 17 Este 0 -- -- 91
2020-11-26 17:00:00 10.4 10 Este 22 Este 0.2 -- -- 92
2020-11-26 16:00:00 10.3 6 Este 12 Sudeste 1.4 -- -- 95
2020-11-26 15:00:00 10.6 7 Sudeste 13 Sudeste 0.8 -- -- 91
2020-11-26 14:00:00 11.2 12 Sudeste 29 Sudeste 0 -- -- 85
2020-11-26 13:00:00 11.4 14 Sudeste 31 Este 0.2 -- -- 87
2020-11-26 12:00:00 11 14 Sudeste 32 Sudeste 0 -- -- 91
2020-11-26 11:00:00 10.2 5 Este 11 Sudeste 0 -- -- 96
2020-11-26 10:00:00 9.4 8 Sudeste 12 Este 0 -- -- 97
2020-11-26 09:00:00 8.9 3 Este 7 Nordeste 2.4 -- -- 97
2020-11-26 08:00:00 9 4 Norte 18 Sudoeste 3.4 -- -- 96
2020-11-26 07:00:00 9.7 12 Sur 23 Sur 3.6 -- -- 92
2020-11-26 06:00:00 10.5 8 Sudeste 31 Sudeste 0.2 -- -- 91
2020-11-26 05:00:00 9.7 4 Este 22 Sudeste 1 -- -- 95
2020-11-26 04:00:00 9.6 11 Sudeste 26 Sudeste 3 -- -- 94
2020-11-26 03:00:00 9.8 6 Sudeste 21 Sudeste 0.6 -- -- 92
2020-11-26 02:00:00 9.2 3 Nordeste 14 Este 0.4 -- -- 94
2020-11-26 01:00:00 9.4 7 Este 18 Este 0.2 -- -- 94
2020-11-26 00:00:00 9.5 6 Sur 18 Este 0.2 -- -- 94
2020-11-25 23:00:00 9.8 9 Este 13 Este 4.8 -- -- 97
2020-11-25 22:00:00 10.3 3 Nordeste 18 Este 6.8 -- -- 95
2020-11-25 21:00:00 12.2 2 Noroeste 17 Sudeste 1.2 -- -- 95
2020-11-25 20:00:00 12.5 6 Sudeste 17 Este 0.4 -- -- 93
2020-11-25 19:00:00 13.2 10 Sudeste 24 Sudeste 0 -- -- 89
2020-11-25 18:00:00 13.4 7 Sudeste 19 Sudeste 0 -- -- 92
2020-11-25 17:00:00 13.5 11 Sur 27 Sur 0 -- -- 92
2020-11-25 16:00:00 13.4 13 Sudeste 26 Sur 0.2 -- -- 94
2020-11-25 15:00:00 13.2 9 Sudeste 19 Sudeste 0.2 -- -- 93
2020-11-25 14:00:00 13.9 10 Sur 27 Sudeste 0 -- -- 87
2020-11-25 13:00:00 14.3 13 Sur 23 Sur 0.2 -- -- 86
2020-11-25 12:00:00 12.2 13 Sudeste 28 Sur 0.2 -- -- 94
2020-11-25 11:00:00 12.2 4 Sudeste 19 Sudoeste 8.4 -- -- 96
2020-11-25 10:00:00 12.9 9 Sudoeste 22 Sudeste 6.2 -- -- 96
2020-11-25 09:00:00 12.7 11 Sudeste 31 Sur 1.2 -- -- 96
2020-11-25 08:00:00 11.8 10 Sudeste 22 Sur 0 -- -- 100
2020-11-25 07:00:00 9.4 4 Este 12 Este 0 -- -- 100
2020-11-25 06:00:00 6.3 3 Este 5 Este 0 -- -- 100
2020-11-25 05:00:00 5.3 0 Calma 3 Nordeste 0 -- -- 100
2020-11-25 04:00:00 4.5 0 Calma 5 Sudoeste 0 -- -- 99
2020-11-25 03:00:00 3.9 0 Calma 5 Sudoeste 0 -- -- 99
2020-11-25 02:00:00 4.5 2 Este 5 Sudeste 0 -- -- 98
2020-11-25 01:00:00 5.4 2 Este 6 Sur 0 -- -- 98
2020-11-25 00:00:00 6.2 0 Calma 4 Sudeste 0 -- -- 97
2020-11-24 23:00:00 7 0 Calma 3 Este 0 -- -- 96
2020-11-24 22:00:00 8.3 2 Este 5 Nordeste 0 -- -- 95
2020-11-24 21:00:00 10.6 0 Calma 8 Norte 0 -- -- 92
2020-11-24 20:00:00 11.1 0 Calma 8 Oeste 0 -- -- 92
2020-11-24 19:00:00 12.5 0 Calma 4 Oeste 0 -- -- 84
2020-11-24 18:00:00 14.4 3 Sudoeste 9 Sudoeste 0 -- -- 80
2020-11-24 17:00:00 16.1 5 Sudoeste 14 Sudoeste 0 -- -- 72
2020-11-24 16:00:00 16.1 5 Sudoeste 14 Sudoeste 0 -- -- 70
2020-11-24 15:00:00 17.2 8 Sudoeste 15 Sudoeste 0 -- -- 64
2020-11-24 14:00:00 16.2 8 Sur 16 Sur 0 -- -- 66
2020-11-24 13:00:00 16 4 Sur 13 Sur 0 -- -- 64
2020-11-24 12:00:00 14.7 0 Calma 6 Noroeste 0 -- -- 71
2020-11-24 11:00:00 12.2 0 Calma 5 Sudeste 0 -- -- 85
2020-11-24 10:00:00 8.3 0 Calma 5 Este 0 -- -- 100
2020-11-24 09:00:00 4.5 3 Este 6 Sudeste 0 -- -- 100
2020-11-24 08:00:00 3.5 2 Este 4 Este 0 -- -- 99
2020-11-24 07:00:00 3.4 2 Sudeste 6 Este 0 -- -- 98
2020-11-24 06:00:00 4 3 Este 4 Este 0 -- -- 99
2020-11-24 05:00:00 3.9 0 Calma 8 Sudeste 0 -- -- 97
2020-11-24 04:00:00 4.3 3 Sudeste 6 Sudeste 0 -- -- 97
2020-11-24 03:00:00 4.9 3 Sudeste 7 Sudeste 0 -- -- 97
2020-11-24 02:00:00 4.9 3 Este 6 Sudeste 0 -- -- 98
2020-11-24 01:00:00 5.3 4 Sudeste 5 Sudeste 0 -- -- 96
2020-11-24 00:00:00 5.3 2 Este 6 Sudeste 0 -- -- 95
2020-11-23 23:00:00 5.6 4 Este 5 Sudeste 0 -- -- 95
2020-11-23 22:00:00 6.8 0 Calma 5 Sudeste 0 -- -- 91
2020-11-23 21:00:00 7.7 3 Este 4 Sudeste 0 -- -- 91
2020-11-23 20:00:00 9.5 3 Este 4 Nordeste 0 -- -- 85
2020-11-23 19:00:00 11.5 2 Nordeste 7 Oeste 0 -- -- 76
2020-11-23 18:00:00 16 6 Oeste 10 Oeste 0 -- -- 57
2020-11-23 17:00:00 19.2 4 Oeste 10 Sudoeste 0 -- -- 46
2020-11-23 16:00:00 19.8 3 Sudoeste 8 Sudeste 0 -- -- 46
2020-11-23 15:00:00 19.4 4 Sudoeste 12 Sudoeste 0 -- -- 45
2020-11-23 14:00:00 18.7 5 Sudoeste 11 Sur 0 -- -- 49
2020-11-23 13:00:00 18 6 Sur 12 Sur 0 -- -- 53
2020-11-23 12:00:00 16.7 4 Este 11 Sur 0 -- -- 52
2020-11-23 11:00:00 13.6 3 Este 9 Sur 0 -- -- 72
2020-11-23 10:00:00 8.9 2 Este 5 Este 0 -- -- 95
2020-11-23 09:00:00 3 0 Calma 3 Sudeste 0 -- -- 99
2020-11-23 08:00:00 3.5 2 Sudeste 6 Este 0 -- -- 98
2020-11-23 07:00:00 3.3 2 Este 5 Este 0 -- -- 97
2020-11-23 06:00:00 4.2 2 Este 6 Sudeste 0 -- -- 98
2020-11-23 05:00:00 4.2 3 Este 6 Sudeste 0 -- -- 97
2020-11-23 04:00:00 4.4 2 Este 6 Sudeste 0 -- -- 98
2020-11-23 03:00:00 4.7 3 Sudeste 8 Sudeste 0 -- -- 97
2020-11-23 02:00:00 4.7 5 Sudeste 8 Sudeste 0 -- -- 96
2020-11-23 01:00:00 6 4 Sudeste 6 Sudeste 0 -- -- 96
2020-11-23 00:00:00 6.3 4 Sudeste 5 Sudeste 0 -- -- 95
2020-11-22 23:00:00 6.1 4 Sudeste 7 Sudeste 0 -- -- 95
2020-11-22 22:00:00 7.1 4 Este 6 Este 0 -- -- 92
2020-11-22 21:00:00 8.2 3 Este 6 Sudeste 0 -- -- 89
2020-11-22 20:00:00 9.5 0 Calma 7 Norte 0 -- -- 86
2020-11-22 19:00:00 12.6 2 Norte 9 Nordeste 0 -- -- 73
2020-11-22 18:00:00 18 0 Calma 12 Este 0 -- -- 55
2020-11-22 17:00:00 19.5 8 Este 17 Nordeste 0 -- -- 44
2020-11-22 16:00:00 20.3 6 Este 15 Sudeste 0 -- -- 44
2020-11-22 15:00:00 20.4 6 Sudeste 16 Sudeste 0 -- -- 44
2020-11-22 14:00:00 19.6 7 Sudeste 19 Sudeste 0 -- -- 45
2020-11-22 13:00:00 18.9 10 Sudeste 21 Sudeste 0 -- -- 46
2020-11-22 12:00:00 17.2 4 Nordeste 18 Sudeste 0 -- -- 59
2020-11-22 11:00:00 15.2 7 Este 16 Sudeste 0 -- -- 69
2020-11-22 10:00:00 10.3 0 Calma 4 Este 0 -- -- 100
2020-11-22 09:00:00 5.2 2 Este 5 Este 0 -- -- 100
2020-11-22 08:00:00 4.6 0 Calma 5 Sudeste 0 -- -- 99
2020-11-22 07:00:00 5.2 0 Calma 6 Este 0 -- -- 100
2020-11-22 06:00:00 4.7 0 Calma 5 Sudeste 0 -- -- 98
2020-11-22 05:00:00 5 0 Calma 5 Este 0 -- -- 97
2020-11-22 04:00:00 5.5 3 Nordeste 7 Sudeste 0 -- -- 98
2020-11-22 03:00:00 5.5 2 Este 5 Sudeste 0 -- -- 98
2020-11-22 02:00:00 6.1 3 Este 4 Este 0 -- -- 98
2020-11-22 01:00:00 6.1 0 Calma 4 Nordeste 0 -- -- 96
2020-11-22 00:00:00 7.1 4 Sur 8 Sur 0 -- -- 95
2020-11-21 23:00:00 9.1 4 Sudeste 7 Este 0 -- -- 96
2020-11-21 22:00:00 9.7 3 Este 8 Sudeste 0 -- -- 93
2020-11-21 21:00:00 11.7 3 Este 5 Nordeste 0 -- -- 89
2020-11-21 20:00:00 13.4 3 Nordeste 8 Nordeste 0 -- -- 84
2020-11-21 19:00:00 15.1 5 Sudeste 10 Sudeste 0 -- -- 74
2020-11-21 18:00:00 19.6 3 Norte 8 Norte 0 -- -- 59
2020-11-21 17:00:00 21.7 3 Sudoeste 8 Sur 0 -- -- 51
2020-11-21 16:00:00 21.4 8 Sudoeste 15 Sur 0 -- -- 54
2020-11-21 15:00:00 21.9 5 Sudoeste 10 Sur 0 -- -- 53
2020-11-21 14:00:00 21.4 3 Sur 13 Sudeste 0 -- -- 50
2020-11-21 13:00:00 20.3 6 Sudeste 13 Sudeste 0 -- -- 54
2020-11-21 12:00:00 19.3 7 Sudeste 16 Sudeste 0 -- -- 56
2020-11-21 11:00:00 15.6 0 Calma 4 Este 0 -- -- 65
2020-11-21 10:00:00 10.7 0 Calma 5 Este 0 -- -- 76
2020-11-21 09:00:00 5.1 2 Este 7 Sudeste 0 -- -- 93
2020-11-21 08:00:00 3.6 4 Sudeste 6 Sudeste 0 -- -- 92
2020-11-21 07:00:00 3.9 3 Nordeste 9 Sudeste 0 -- -- 91
2020-11-21 06:00:00 3.8 3 Sudeste 8 Sudeste 0 -- -- 91
2020-11-21 05:00:00 4.8 5 Nordeste 9 Nordeste 0 -- -- 88
2020-11-21 04:00:00 5.1 3 Nordeste 6 Sudeste 0 -- -- 86
2020-11-21 03:00:00 5.7 2 Sudeste 8 Sur 0 -- -- 82
2020-11-21 02:00:00 5.9 4 Sudeste 9 Nordeste 0 -- -- 86
2020-11-21 01:00:00 7 3 Sudeste 8 Este 0 -- -- 83
2020-11-21 00:00:00 7.4 5 Sudeste 9 Este 0 -- -- 84
2020-11-20 23:00:00 8.1 2 Sudeste 8 Este 0 -- -- 81
2020-11-20 22:00:00 9.7 3 Nordeste 7 Este 0 -- -- 74
2020-11-20 21:00:00 12 4 Este 10 Sur 0 -- -- 62
2020-11-20 20:00:00 12.9 5 Sudeste 10 Este 0 -- -- 53
2020-11-20 19:00:00 16.5 3 Sudeste 21 Nordeste 0 -- -- 49
2020-11-20 18:00:00 20.9 13 Nordeste 26 Nordeste 0 -- -- 35
2020-11-20 17:00:00 22.8 8 Nordeste 23 Nordeste 0 -- -- 36
2020-11-20 16:00:00 23.8 9 Nordeste 20 Este 0 -- -- 41
2020-11-20 15:00:00 23.6 12 Nordeste 21 Nordeste 0 -- -- 43
2020-11-20 14:00:00 23.3 2 Sur 17 Norte 0 -- -- 42
2020-11-20 13:00:00 21.8 12 Norte 24 Norte 0 -- -- 50
2020-11-20 12:00:00 21.1 10 Norte 16 Norte 0 -- -- 54
2020-11-20 11:00:00 19.1 0 Calma 5 Este 0 -- -- 64
2020-11-20 10:00:00 14.9 4 Este 6 Este 0 -- -- 79
2020-11-20 09:00:00 10.2 4 Sudeste 8 Sudeste 0 -- -- 97
2020-11-20 08:00:00 8.6 3 Sudeste 9 Sur 0 -- -- 94
2020-11-20 07:00:00 8.5 0 Calma 5 Sudeste 0 -- -- 94
2020-11-20 06:00:00 9.2 4 Nordeste 8 Sur 0 -- -- 94
2020-11-20 05:00:00 9.9 3 Sudeste 8 Sudeste 0 -- -- 91
2020-11-20 04:00:00 11.3 5 Sudeste 8 Este 0 -- -- 85
2020-11-20 03:00:00 13 0 Calma 8 Sudoeste 0 -- -- 81
2020-11-20 02:00:00 15.5 3 Noroeste 8 Noroeste 0 -- -- 72
2020-11-20 01:00:00 13.3 3 Noroeste 8 Noroeste 0 -- -- 81
2020-11-20 00:00:00 14.8 2 Norte 5 Sudoeste 0 -- -- 76
2020-11-19 23:00:00 16.8 4 Sudoeste 15 Sudeste 0 -- -- 68
2020-11-19 22:00:00 18.2 6 Sudeste 20 Nordeste 0 -- -- 61
2020-11-19 21:00:00 20.2 9 Este 33 Nordeste 0 -- -- 55
2020-11-19 20:00:00 21 19 Nordeste 34 Nordeste 0 -- -- 54
2020-11-19 19:00:00 21 8 Este 19 Nordeste 0 -- -- 58
2020-11-19 18:00:00 22.7 10 Nordeste 25 Este 0 -- -- 54
2020-11-19 17:00:00 24.7 14 Este 30 Este 0 -- -- 44
2020-11-19 16:00:00 25.6 14 Nordeste 37 Nordeste 0 -- -- 38
2020-11-19 15:00:00 26.1 17 Nordeste 26 Este 0 -- -- 40
2020-11-19 14:00:00 25.8 12 Nordeste 28 Este 0 -- -- 41
2020-11-19 13:00:00 26.1 19 Este 28 Este 0 -- -- 33
2020-11-19 12:00:00 23.6 3 Noroeste 11 Nordeste 0 -- -- 43
2020-11-19 11:00:00 17.4 0 Calma 4 Norte 0 -- -- 81
2020-11-19 10:00:00 12.5 0 Calma 6 Sudeste 0 -- -- 99
2020-11-19 09:00:00 9.4 4 Este 6 Este 0 -- -- 100
2020-11-19 08:00:00 8 0 Calma 5 Sur 0 -- -- 98
2020-11-19 07:00:00 8.4 0 Calma 3 Norte 0 -- -- 97
2020-11-19 06:00:00 9.5 0 Calma 6 Este 0 -- -- 97
2020-11-19 05:00:00 10.8 0 Calma 4 Este 0 -- -- 98
2020-11-19 04:00:00 10.5 2 Este 6 Sudeste 0 -- -- 98
2020-11-19 03:00:00 10.5 3 Sudeste 7 Sudeste 0 -- -- 98
2020-11-19 02:00:00 10.8 3 Este 5 Sudeste 0 -- -- 98
2020-11-19 01:00:00 10.8 0 Calma 5 Este 0 -- -- 95
2020-11-19 00:00:00 11.8 2 Sudeste 5 Este 0 -- -- 96
2020-11-18 23:00:00 12 2 Este 4 Nordeste 0 -- -- 95
2020-11-18 22:00:00 13.2 3 Este 6 Este 0 -- -- 95
2020-11-18 21:00:00 14 2 Este 5 Sudeste 0 -- -- 90
2020-11-18 20:00:00 16.1 2 Este 6 Sudeste 0 -- -- 85
2020-11-18 19:00:00 18.1 3 Nordeste 8 Norte 0 -- -- 78
2020-11-18 18:00:00 22.2 3 Norte 9 Oeste 0 -- -- 64
2020-11-18 17:00:00 24.9 3 Oeste 13 Oeste 0 -- -- 50
2020-11-18 16:00:00 25.3 8 Oeste 12 Oeste 0 -- -- 44
2020-11-18 15:00:00 26.3 5 Sudoeste 11 Sudoeste 0 -- -- 45
2020-11-18 14:00:00 25 8 Oeste 14 Oeste 0 -- -- 46
2020-11-18 13:00:00 24.1 3 Noroeste 6 Oeste 0 -- -- 46
2020-11-18 12:00:00 21.6 0 Calma 6 Sudeste 0 -- -- 58
2020-11-18 11:00:00 18.2 0 Calma 4 Este 0 -- -- 70
2020-11-18 10:00:00 13.9 2 Sudeste 8 Sudeste 0 -- -- 82
2020-11-18 09:00:00 9.6 3 Sudeste 8 Este 0 -- -- 97
2020-11-18 08:00:00 8.4 5 Este 7 Sudeste 0 -- -- 98
2020-11-18 07:00:00 8.2 3 Sudeste 7 Este 0 -- -- 98
2020-11-18 06:00:00 8.1 3 Sudeste 6 Este 0 -- -- 99
2020-11-18 05:00:00 8.7 5 Este 8 Este 0 -- -- 99
2020-11-18 04:00:00 8.7 5 Sudeste 6 Este 0 -- -- 98
2020-11-18 03:00:00 9.4 4 Sudeste 5 Este 0 -- -- 99
2020-11-18 02:00:00 9.5 3 Este 6 Este 0 -- -- 98
2020-11-18 01:00:00 10.1 2 Este 4 Sudeste 0 -- -- 98
2020-11-18 00:00:00 10.9 4 Este 5 Sudeste 0 -- -- 97
2020-11-17 23:00:00 11.7 4 Este 6 Este 0 -- -- 98
2020-11-17 22:00:00 12 0 Calma 5 Este 0 -- -- 97
2020-11-17 21:00:00 12.5 0 Calma -- -- 0 -- -- 94
2020-11-17 20:00:00 14.2 4 Este 5 Este 0 -- -- 91
2020-11-17 19:00:00 17.2 3 Nordeste 9 Sudeste 0 -- -- 82
2020-11-17 18:00:00 21.6 5 Sudeste 14 Sur 0 -- -- 64
2020-11-17 17:00:00 23.5 8 Sur 21 Sur 0 -- -- 63
2020-11-17 16:00:00 23.7 10 Sur 20 Sur 0 -- -- 65
2020-11-17 15:00:00 24.2 11 Sur 19 Sudeste 0 -- -- 61
2020-11-17 14:00:00 23.8 10 Sur 19 Sudeste 0 -- -- 67
2020-11-17 13:00:00 22.9 12 Sur 19 Sur 0 -- -- 71
2020-11-17 12:00:00 20.7 3 Noroeste 6 Noroeste 0 -- -- 79
2020-11-17 11:00:00 17.3 0 Calma 6 Este 0 -- -- 91
2020-11-17 10:00:00 13.8 3 Este 5 Este 0 -- -- 100
2020-11-17 09:00:00 10.1 3 Este 8 Este 0 -- -- 100
2020-11-17 08:00:00 8.9 4 Este 6 Nordeste 0.2 -- -- 100
2020-11-17 07:00:00 9.2 2 Este 7 Este 0 -- -- 100
2020-11-17 06:00:00 9.6 4 Sudeste 6 Nordeste 0 -- -- 100
2020-11-17 05:00:00 9.7 3 Este 7 Nordeste 0 -- -- 100
2020-11-17 04:00:00 10.2 4 Sudeste 6 Este 0 -- -- 99
2020-11-17 03:00:00 10.1 4 Sudeste 6 Sudeste 0 -- -- 100
2020-11-17 02:00:00 10.7 4 Sudeste 6 Este 0 -- -- 99
2020-11-17 01:00:00 11.2 4 Este 5 Nordeste 0 -- -- 99
2020-11-17 00:00:00 11.4 3 Sudeste 5 Sudeste 0 -- -- 98
2020-11-16 23:00:00 12.4 4 Este 6 Sudeste 0 -- -- 99
2020-11-16 22:00:00 12.7 0 Calma 6 Este 0 -- -- 95
2020-11-16 21:00:00 14.1 2 Este 5 Nordeste 0 -- -- 94
2020-11-16 20:00:00 15.9 2 Este 6 Norte 0 -- -- 89
2020-11-16 19:00:00 18 0 Calma 13 Norte 0 -- -- 84
2020-11-16 18:00:00 19.9 5 Norte 16 Norte 0 -- -- 79
2020-11-16 17:00:00 21.5 10 Noroeste 15 Noroeste 0 -- -- 72
2020-11-16 16:00:00 23 6 Oeste 14 Oeste 0 -- -- 67
2020-11-16 15:00:00 22.4 7 Oeste 13 Oeste 0 -- -- 71
2020-11-16 14:00:00 21.9 7 Oeste 12 Oeste 0 -- -- 71
2020-11-16 13:00:00 22 4 Sur 10 Sur 0 -- -- 69
2020-11-16 12:00:00 20.3 4 Sudeste 7 Sudeste 0 -- -- 76
2020-11-16 11:00:00 17.6 2 Sudoeste 5 Sudeste 0 -- -- 90
2020-11-16 10:00:00 15.3 2 Sudeste 5 Este 0 -- -- 100
2020-11-16 09:00:00 12.8 4 Sur 6 Sur 0 -- -- 100
2020-11-16 08:00:00 11.9 4 Sur 9 Este 0 -- -- 100
2020-11-16 07:00:00 11.6 3 Sur 5 Sudeste 0 -- -- 100
2020-11-16 06:00:00 11.1 4 Este 5 Este 0 -- -- 100
2020-11-16 05:00:00 11 0 Calma 4 Sur 0 -- -- 98
2020-11-16 04:00:00 12.2 0 Calma 8 Nordeste 0 -- -- 99
2020-11-16 03:00:00 13 3 Sudeste 7 Este 0 -- -- 99
2020-11-16 02:00:00 12.5 4 Sudeste 7 Sudeste 0 -- -- 99
2020-11-16 01:00:00 12 4 Sur 6 Sur 0 -- -- 97
2020-11-16 00:00:00 12.9 0 Calma 6 Nordeste 0 -- -- 95
2020-11-15 23:00:00 13.6 0 Calma 6 Norte 0 -- -- 95
2020-11-15 22:00:00 14.7 2 Sur 10 Norte 0 -- -- 91
2020-11-15 21:00:00 15.8 2 Nordeste 8 Nordeste 0 -- -- 89
2020-11-15 20:00:00 17.3 3 Nordeste 8 Norte 0 -- -- 84
2020-11-15 19:00:00 19.5 5 Sudeste 12 Este 0 -- -- 76
2020-11-15 18:00:00 20.9 8 Sudeste 25 Sur 0 -- -- 74
2020-11-15 17:00:00 22.9 9 Sur 26 Sudoeste 0 -- -- 66
2020-11-15 16:00:00 24.3 10 Sur 28 Sur 0 -- -- 62
2020-11-15 15:00:00 24.2 9 Sur 25 Sur 0 -- -- 63
2020-11-15 14:00:00 23.1 14 Sur 26 Sur 0 -- -- 67
2020-11-15 13:00:00 22.7 13 Sur 21 Sur 0 -- -- 68
2020-11-15 12:00:00 22.1 9 Sur 16 Sudeste 0 -- -- 71
2020-11-15 11:00:00 19.9 5 Sur 13 Sur 0 -- -- 76
2020-11-15 10:00:00 18.3 0 Calma 9 Este 0 -- -- 85
2020-11-15 09:00:00 14.5 4 Este 8 Este 0 -- -- 97
2020-11-15 08:00:00 14.4 0 Calma 10 Este 0 -- -- 96
2020-11-15 07:00:00 15.9 6 Este 10 Este 0 -- -- 95
2020-11-15 06:00:00 16.4 4 Este 7 Este 0 -- -- 93
2020-11-15 05:00:00 17 6 Este 11 Este 0 -- -- 94
2020-11-15 04:00:00 16.8 3 Este 5 Este 0 -- -- 96
2020-11-15 03:00:00 17 4 Sudeste 9 Este 0 -- -- 94
2020-11-15 02:00:00 17 6 Este 13 Este 0 -- -- 95
2020-11-15 01:00:00 16.8 4 Sudeste 12 Sudeste 0 -- -- 97
2020-11-15 00:00:00 16.4 6 Sudeste 15 Este 0 -- -- 99
2020-11-14 23:00:00 15.6 0 Calma 10 Este 0 -- -- 98
2020-11-14 22:00:00 16.1 0 Calma 6 Este 0 -- -- 98
2020-11-14 21:00:00 16 2 Nordeste 4 Este 0 -- -- 97
2020-11-14 20:00:00 16.8 0 Calma 3 Nordeste 0 -- -- 96
2020-11-14 19:00:00 17.3 2 Nordeste 6 Noroeste 0 -- -- 95
2020-11-14 18:00:00 17.9 3 Norte 9 Nordeste 0.4 -- -- 93
2020-11-14 17:00:00 19.2 4 Oeste 8 Oeste 0 -- -- 83
2020-11-14 16:00:00 19.7 3 Oeste 10 Sudoeste 0 -- -- 80
2020-11-14 15:00:00 19.2 5 Sudoeste 18 Sudoeste 0 -- -- 81
2020-11-14 14:00:00 20.2 8 Sur 18 Sudoeste 0 -- -- 79
2020-11-14 13:00:00 18.8 10 Sur 23 Sudoeste 0 -- -- 86
2020-11-14 12:00:00 17.8 13 Sur 24 Sudoeste 0 -- -- 93
2020-11-14 11:00:00 15.9 3 Noroeste 5 Oeste 0 -- -- 98
2020-11-14 10:00:00 15.3 2 Norte 6 Oeste 2 -- -- 97
2020-11-14 09:00:00 15 2 Nordeste 13 Sudeste 0.2 -- -- 95
2020-11-14 08:00:00 15.2 4 Sudeste 15 Sudeste 0 -- -- 93
2020-11-14 07:00:00 15.4 8 Sudoeste 16 Sudoeste 0 -- -- 97
2020-11-14 06:00:00 15.3 4 Sudeste 8 Este 0.2 -- -- 98
2020-11-14 05:00:00 15.4 2 Este 10 Este 0 -- -- 97
2020-11-14 04:00:00 15.2 2 Nordeste 4 Nordeste 0.2 -- -- 96
2020-11-14 03:00:00 15.2 0 Calma 2 Sudoeste 0 -- -- 95
2020-11-14 02:00:00 15.4 0 Calma 8 Este 0 -- -- 94
2020-11-14 01:00:00 15.5 5 Este 8 Este 0 -- -- 94
2020-11-14 00:00:00 15.6 0 Calma 5 Este 0 -- -- 93
2020-11-13 23:00:00 16.1 3 Sudeste 5 Sudeste 0 -- -- 91
2020-11-13 22:00:00 16.5 4 Sudeste 13 Sur 0 -- -- 89
2020-11-13 21:00:00 16.6 7 Sur 14 Sudeste 0 -- -- 89
2020-11-13 20:00:00 17 6 Sur 18 Sudeste 0 -- -- 86
2020-11-13 19:00:00 17.1 4 Sudeste 10 Sudeste 0 -- -- 83
2020-11-13 18:00:00 17.7 5 Sudeste 17 Sudeste 0 -- -- 81
2020-11-13 17:00:00 18.4 7 Sudeste 18 Sur 0 -- -- 77
2020-11-13 16:00:00 18.8 11 Sur 19 Sur 0 -- -- 75
2020-11-13 15:00:00 18.8 9 Sur 23 Sur 0 -- -- 75
2020-11-13 14:00:00 18.8 8 Sudeste 17 Sudeste 0 -- -- 75
2020-11-13 13:00:00 18.3 10 Sudeste 19 Sudeste 0 -- -- 76
2020-11-13 12:00:00 17.7 10 Sudeste 21 Sudeste 0 -- -- 74
2020-11-13 11:00:00 16 5 Sudeste 14 Este 0 -- -- 84
2020-11-13 10:00:00 12.2 0 Calma 6 Este 0 -- -- 100
2020-11-13 09:00:00 10.3 0 Calma 4 Sudeste 0 -- -- 100
2020-11-13 08:00:00 9 0 Calma 6 Este 0 -- -- 99
2020-11-13 07:00:00 9 2 Sudeste 6 Este 0 -- -- 99
2020-11-13 06:00:00 8.5 3 Sudeste 5 Este 0 -- -- 100
2020-11-13 05:00:00 7.9 3 Sudeste 5 Este 0 -- -- 99
2020-11-13 04:00:00 7.2 3 Sudeste 6 Sudeste 0 -- -- 98
2020-11-13 03:00:00 8 4 Este 5 Este 0 -- -- 98
2020-11-13 02:00:00 7.8 3 Este 5 Este 0 -- -- 98
2020-11-13 01:00:00 7.7 4 Este 5 Este 0 -- -- 98
2020-11-13 00:00:00 7.8 3 Nordeste 6 Sudeste 0 -- -- 97
2020-11-12 23:00:00 8.1 3 Este 6 Este 0 -- -- 95
2020-11-12 22:00:00 9.4 5 Este 7 Este 0 -- -- 93
2020-11-12 21:00:00 10.3 3 Nordeste 7 Norte 0 -- -- 92
2020-11-12 20:00:00 11.9 3 Este 5 Nordeste 0 -- -- 87
2020-11-12 19:00:00 14.4 3 Este 9 Nordeste 0 -- -- 76
2020-11-12 18:00:00 19.7 0 Calma 10 Sudeste 0 -- -- 58
2020-11-12 17:00:00 21.2 6 Sur 12 Sur 0 -- -- 48
2020-11-12 16:00:00 21.7 8 Sur 15 Este 0 -- -- 47
2020-11-12 15:00:00 20.6 9 Sudeste 21 Este 0 -- -- 51
2020-11-12 14:00:00 19.3 10 Este 18 Sudeste 0 -- -- 56
2020-11-12 13:00:00 18.4 6 Nordeste 11 Nordeste 0 -- -- 64
2020-11-12 12:00:00 16.8 2 Oeste 11 Este 0 -- -- 73
2020-11-12 11:00:00 15.8 6 Este 14 Este 0 -- -- 75
2020-11-12 10:00:00 12 3 Nordeste 9 Este 0 -- -- 100
2020-11-12 09:00:00 8.1 0 Calma 2 Este 0 -- -- 100
2020-11-12 08:00:00 7.7 0 Calma 3 Este 0 -- -- 98
2020-11-12 07:00:00 8.2 0 Calma 5 Nordeste 0 -- -- 98
2020-11-12 06:00:00 8.8 0 Calma 8 Este 0 -- -- 98
2020-11-12 05:00:00 8.7 3 Sudeste 5 Sudeste 0 -- -- 98
2020-11-12 04:00:00 8.8 0 Calma 4 Nordeste 0 -- -- 97
2020-11-12 03:00:00 9.5 3 Nordeste 6 Este 0 -- -- 98
2020-11-12 02:00:00 9.6 0 Calma 6 Sudeste 0 -- -- 99
2020-11-12 01:00:00 9.4 3 Este 5 Sudeste 0 -- -- 98
2020-11-12 00:00:00 9.4 0 Calma 4 Sudeste 0 -- -- 97
2020-11-11 23:00:00 9.9 0 Calma 6 Sur 0 -- -- 97
2020-11-11 22:00:00 11 0 Calma 7 Nordeste 0 -- -- 95
2020-11-11 21:00:00 12.2 3 Nordeste 5 Este 0 -- -- 93
2020-11-11 20:00:00 13.9 3 Nordeste 8 Este 0 -- -- 88
2020-11-11 19:00:00 15.9 2 Sudeste 13 Norte 0 -- -- 80
2020-11-11 18:00:00 18 8 Norte 16 Noroeste 0 -- -- 72
2020-11-11 17:00:00 19.7 10 Norte 15 Noroeste 0 -- -- 65
2020-11-11 16:00:00 19.9 10 Norte 15 Norte 0 -- -- 64
2020-11-11 15:00:00 20 9 Noroeste 15 Norte 0 -- -- 61
2020-11-11 14:00:00 20.1 6 Noroeste 13 Oeste 0 -- -- 58
2020-11-11 13:00:00 20.7 3 Noroeste 12 Sudeste 0 -- -- 58
2020-11-11 12:00:00 20.1 6 Sudeste 16 Sudeste 0 -- -- 57
2020-11-11 11:00:00 17.7 6 Este 11 Este 0 -- -- 67
2020-11-11 10:00:00 12.5 3 Este 4 Este 0 -- -- 100
2020-11-11 09:00:00 7.3 0 Calma 5 Sudeste 0 -- -- 100
2020-11-11 08:00:00 6 4 Sudeste 6 Este 0 -- -- 99
2020-11-11 07:00:00 6.5 2 Sudeste 6 Sudeste 0 -- -- 100
2020-11-11 06:00:00 6.5 0 Calma 5 Nordeste 0 -- -- 98
2020-11-11 05:00:00 7.5 4 Este 5 Este 0 -- -- 97
2020-11-11 04:00:00 7.3 2 Este 5 Sudeste 0 -- -- 98
2020-11-11 03:00:00 7.6 3 Sudeste 5 Este 0 -- -- 98
2020-11-11 02:00:00 7.2 0 Calma 5 Este 0 -- -- 97
2020-11-11 01:00:00 7.9 2 Sudeste 5 Este 0 -- -- 95
2020-11-11 00:00:00 9 4 Este 6 Este 0 -- -- 96
2020-11-10 23:00:00 9.3 2 Este 4 Nordeste 0 -- -- 94
2020-11-10 22:00:00 10.4 2 Este 4 Nordeste 0 -- -- 90
2020-11-10 21:00:00 11.6 0 Calma 5 Nordeste 0 -- -- 87
2020-11-10 20:00:00 13.3 2 Nordeste 5 Nordeste 0 -- -- 80
2020-11-10 19:00:00 15.2 3 Sudeste 14 Nordeste 0 -- -- 72
2020-11-10 18:00:00 19.3 8 Nordeste 14 Este 0 -- -- 55
2020-11-10 17:00:00 20.3 7 Nordeste 20 Noroeste 0 -- -- 55
2020-11-10 16:00:00 20.8 4 Norte 17 Nordeste 0 -- -- 51
2020-11-10 15:00:00 21 2 Noroeste 17 Este 0 -- -- 51
2020-11-10 14:00:00 20.6 3 Norte 14 Este 0 -- -- 55
2020-11-10 13:00:00 19.5 7 Nordeste 17 Este 0 -- -- 59
2020-11-10 12:00:00 18.6 10 Este 16 Este 0 -- -- 62
2020-11-10 11:00:00 15.6 0 Calma 4 Sur 0 -- -- 83
2020-11-10 10:00:00 12.3 0 Calma 5 Sudeste 0 -- -- 100
2020-11-10 09:00:00 7.8 0 Calma 4 Este 0 -- -- 100
2020-11-10 08:00:00 6.1 0 Calma 4 Este 0 -- -- 99
2020-11-10 07:00:00 6.3 2 Sudeste 5 Sudeste 0 -- -- 99
2020-11-10 06:00:00 6.7 3 Sudeste 5 Este 0 -- -- 99
2020-11-10 05:00:00 6.7 2 Sudeste 3 Sudeste 0 -- -- 99
2020-11-10 04:00:00 7.5 0 Calma 6 Sudeste 0 -- -- 99
2020-11-10 03:00:00 8.1 2 Sudeste 6 Sudeste 0 -- -- 98
2020-11-10 02:00:00 8.7 3 Este 5 Este 0 -- -- 99
2020-11-10 01:00:00 9.1 0 Calma 6 Nordeste 0 -- -- 97
2020-11-10 00:00:00 9.7 0 Calma 4 Este 0 -- -- 95
2020-11-09 23:00:00 11.2 2 Este 4 Este 0 -- -- 95
2020-11-09 22:00:00 12.4 0 Calma 8 Este 0 -- -- 93
2020-11-09 21:00:00 13 3 Sudeste 6 Este 0 -- -- 91
2020-11-09 20:00:00 14.8 2 Nordeste 5 Oeste 0 -- -- 82
2020-11-09 19:00:00 15.4 4 Oeste 15 Norte 0 -- -- 80
2020-11-09 18:00:00 16.8 8 Norte 17 Norte 0 -- -- 72
2020-11-09 17:00:00 18.9 10 Norte 17 Noroeste 0 -- -- 59
2020-11-09 16:00:00 19.5 8 Oeste 14 Sudoeste 0 -- -- 56
2020-11-09 15:00:00 19.2 8 Noroeste 16 Noroeste 0 -- -- 59
2020-11-09 14:00:00 18.4 3 Oeste 13 Norte 0 -- -- 62
2020-11-09 13:00:00 17.7 5 Sudoeste 11 Noroeste 0 -- -- 76
2020-11-09 12:00:00 16.6 4 Noroeste 10 Noroeste 0 -- -- 77
2020-11-09 11:00:00 15.2 0 Calma 7 Este 0 -- -- 90
2020-11-09 10:00:00 13.1 2 Nordeste 6 Este 0 -- -- 100
2020-11-09 09:00:00 11.6 3 Este 6 Sudeste 0 -- -- 100
2020-11-09 08:00:00 11.4 3 Sudeste 5 Sudeste 0 -- -- 100
2020-11-09 07:00:00 11.2 3 Este 7 Este 0 -- -- 100
2020-11-09 06:00:00 11.6 2 Sudoeste 4 Sudoeste 0 -- -- 99
2020-11-09 05:00:00 12.2 0 Calma 4 Este 0 -- -- 97
2020-11-09 04:00:00 13.8 2 Sur 4 Sur 0 -- -- 98
2020-11-09 03:00:00 14.1 3 Nordeste 6 Sudeste 1.8 -- -- 98
2020-11-09 02:00:00 14.2 4 Este 18 Sudoeste 1.4 -- -- 97
2020-11-09 01:00:00 15 6 Oeste 21 Sudoeste 1.8 -- -- 96
2020-11-09 00:00:00 15.2 8 Sur 14 Sur 0 -- -- 96
2020-11-08 23:00:00 15.2 6 Sur 13 Sudoeste 0 -- -- 96
2020-11-08 22:00:00 15 4 Este 12 Sur 0.8 -- -- 96
2020-11-08 21:00:00 15.3 3 Sudeste 13 Oeste 0.2 -- -- 94
2020-11-08 20:00:00 15.6 5 Sur 15 Sur 0.6 -- -- 93
2020-11-08 19:00:00 16.1 9 Sur 26 Sur 0.4 -- -- 87
2020-11-08 18:00:00 17.1 10 Sur 25 Sur 0 -- -- 82
2020-11-08 17:00:00 17.4 4 Sudeste 31 Sudoeste 0 -- -- 80
2020-11-08 16:00:00 18 22 Sudoeste 32 Sudoeste 0 -- -- 73
2020-11-08 15:00:00 19 15 Sur 27 Sur 0 -- -- 71
2020-11-08 14:00:00 19.6 12 Sur 28 Sudoeste 0 -- -- 71
2020-11-08 13:00:00 18.9 12 Sur 28 Sur 0 -- -- 78
2020-11-08 12:00:00 16.4 10 Sudoeste 21 Sur 0 -- -- 88
2020-11-08 11:00:00 17 11 Sur 25 Sur 0 -- -- 83
2020-11-08 10:00:00 16 10 Sudeste 19 Sur 0 -- -- 88
2020-11-08 09:00:00 13.6 2 Sudeste 11 Sudeste 0 -- -- 99
2020-11-08 08:00:00 13 0 Calma 8 Sudeste 0 -- -- 98
2020-11-08 07:00:00 13.2 2 Este 9 Sudoeste 0 -- -- 99
2020-11-08 06:00:00 12.5 0 Calma 5 Sur 0 -- -- 99
2020-11-08 05:00:00 13.1 2 Sur 9 Este 0 -- -- 99
2020-11-08 04:00:00 12.5 4 Este 8 Sudeste 0 -- -- 99
2020-11-08 03:00:00 12.1 3 Sudoeste 6 Sudoeste 0 -- -- 100
2020-11-08 02:00:00 11.1 2 Sur 6 Sur 0 -- -- 99
2020-11-08 01:00:00 10.5 0 Calma 6 Sudoeste 0 -- -- 97
2020-11-08 00:00:00 11.3 0 Calma 6 Este 0 -- -- 96
2020-11-07 23:00:00 12.4 3 Sudeste 8 Sudeste 0 -- -- 93
2020-11-07 22:00:00 14 5 Este 15 Sur 0 -- -- 90
2020-11-07 21:00:00 15.2 9 Sur 24 Sur 0 -- -- 86
2020-11-07 20:00:00 15.6 11 Sur 28 Sur 0 -- -- 82
2020-11-07 19:00:00 16 13 Sur 25 Sur 0 -- -- 80
2020-11-07 18:00:00 17.7 10 Sur 24 Sur 0 -- -- 73
2020-11-07 17:00:00 19.3 8 Sur 27 Sur 0 -- -- 65
2020-11-07 16:00:00 19.6 12 Sur 27 Sur 0 -- -- 66
2020-11-07 15:00:00 18.5 13 Sudoeste 28 Sur 0 -- -- 67
2020-11-07 14:00:00 19 16 Sur 31 Sudoeste 0 -- -- 66
2020-11-07 13:00:00 17.9 15 Sudoeste 26 Sudoeste 0 -- -- 71
2020-11-07 12:00:00 17.8 12 Sur 22 Sur 0 -- -- 75
2020-11-07 11:00:00 16.6 10 Sur 19 Sur 0 -- -- 83
2020-11-07 10:00:00 13.6 3 Este 6 Este 0 -- -- 97
2020-11-07 09:00:00 12.2 2 Este 4 Este 0.2 -- -- 99
2020-11-07 08:00:00 11.9 2 Sur 4 Sur 0 -- -- 98
2020-11-07 07:00:00 12.1 0 Calma 6 Sudoeste 0 -- -- 98
2020-11-07 06:00:00 12.7 2 Norte 5 Sudoeste 0.4 -- -- 98
2020-11-07 05:00:00 13 0 Calma 8 Nordeste 2.6 -- -- 97
2020-11-07 04:00:00 12.8 5 Este 8 Este 0.2 -- -- 97
2020-11-07 03:00:00 12.5 2 Noroeste 6 Nordeste 0 -- -- 96
2020-11-07 02:00:00 12.3 2 Nordeste 9 Sur 0 -- -- 95
2020-11-07 01:00:00 12.9 5 Sudoeste 23 Sudeste 0.6 -- -- 92
2020-11-07 00:00:00 12.9 6 Este 23 Oeste 0.8 -- -- 98
2020-11-06 23:00:00 13.2 14 Oeste 25 Oeste 3 -- -- 96
2020-11-06 22:00:00 12.7 0 Calma 10 Sudeste 0 -- -- 95
2020-11-06 21:00:00 12.7 4 Sudeste 11 Este 0 -- -- 96
2020-11-06 20:00:00 13.3 3 Sudoeste 12 Este 0 -- -- 93
2020-11-06 19:00:00 13.4 9 Este 16 Sudeste 0.4 -- -- 92
2020-11-06 18:00:00 13.4 2 Sur 30 Sur 1 -- -- 94
2020-11-06 17:00:00 13.6 0 Calma 12 Sudeste 0 -- -- 92
2020-11-06 16:00:00 13.8 11 Sudoeste 59 Sudoeste 4.8 -- -- 90
2020-11-06 15:00:00 19.1 9 Sudeste 26 Sudeste 0 -- -- 72
2020-11-06 14:00:00 19.6 13 Sur 32 Sur 0 -- -- 72
2020-11-06 13:00:00 19.1 14 Sur 32 Sur 0 -- -- 76
2020-11-06 12:00:00 19.8 20 Sur 35 Sur 0 -- -- 69
2020-11-06 11:00:00 18.8 19 Sur 32 Sur 0 -- -- 64
2020-11-06 10:00:00 18 6 Sur 25 Sudeste 0 -- -- 63
2020-11-06 09:00:00 13.3 3 Norte 8 Sudoeste 0 -- -- 91
2020-11-06 08:00:00 13.9 4 Sur 15 Sudeste 0 -- -- 83
2020-11-06 07:00:00 13.1 4 Este 9 Este 0 -- -- 91
2020-11-06 06:00:00 14.4 3 Nordeste 10 Sudeste 0 -- -- 87
2020-11-06 05:00:00 15.6 9 Este 18 Sudeste 0.2 -- -- 80
2020-11-06 04:00:00 16.1 12 Este 29 Sudeste 0 -- -- 78
2020-11-06 03:00:00 16 10 Sudeste 26 Este 0.2 -- -- 77
2020-11-06 02:00:00 15.4 4 Este 12 Sudeste 0 -- -- 81
2020-11-06 01:00:00 15.7 7 Este 20 Sur 0 -- -- 82
2020-11-06 00:00:00 16.2 12 Sur 22 Sur 0 -- -- 80
2020-11-05 23:00:00 14 0 Calma 9 Este 0 -- -- 92
2020-11-05 22:00:00 15.4 7 Sudeste 15 Sudeste 0 -- -- 85
2020-11-05 21:00:00 15.7 5 Sudeste 22 Sudeste 0 -- -- 87
2020-11-05 20:00:00 15.1 9 Sudeste 24 Este 1.2 -- -- 92
2020-11-05 19:00:00 13.6 0 Calma 10 Sudoeste 0 -- -- 82
2020-11-05 18:00:00 15.1 9 Oeste 20 Sudeste 0 -- -- 71
2020-11-05 17:00:00 18 11 Sudeste 34 Sudeste 0 -- -- 67
2020-11-05 16:00:00 19.6 18 Sudeste 36 Sudeste 0 -- -- 59
2020-11-05 15:00:00 19.1 19 Sudeste 36 Sudeste 0 -- -- 65
2020-11-05 14:00:00 18 14 Sudeste 36 Sudeste 0 -- -- 73
2020-11-05 13:00:00 17.7 18 Sudeste 33 Sur 0 -- -- 73
2020-11-05 12:00:00 16.2 19 Sudeste 36 Sudeste 0 -- -- 82
2020-11-05 11:00:00 15.5 17 Sudeste 31 Sudeste 0 -- -- 87
2020-11-05 10:00:00 14 7 Sudeste 33 Sudeste 1.8 -- -- 96
2020-11-05 09:00:00 13.3 9 Este 24 Sudeste 0.2 -- -- 95
2020-11-05 08:00:00 12.9 6 Sudeste 27 Sudeste 1 -- -- 97
2020-11-05 07:00:00 12.2 0 Calma 6 Este 0.8 -- -- 98
2020-11-05 06:00:00 12.3 3 Este 11 Este 0.6 -- -- 98
2020-11-05 05:00:00 12.4 4 Sur 8 Sur 1.2 -- -- 98
2020-11-05 04:00:00 12.2 0 Calma 9 Este 1.6 -- -- 98
2020-11-05 03:00:00 12.3 8 Este 14 Este 2 -- -- 97
2020-11-05 02:00:00 11.6 0 Calma 19 Este 1.4 -- -- 95
2020-11-05 01:00:00 11.4 7 Este 24 Este 2.4 -- -- 94
2020-11-05 00:00:00 11 6 Este 31 Nordeste 7.6 -- -- 96